HKMO/MBA METAR and TAF weather

Enter ICAO airport designator
Station Type Date Time Source
HKMO METAR 2021/10/22 15:00 UTC NOAA

HKMO 221500Z 15009KT 9999 FEW023 27/22 Q1013 NOSIG


Station Type Date Time Source
HKMO Decoded METAR 2021/10/22 15:00 UTC NOAA

Mombasa, Kenya (HKMO) 04-02S 039-37E 55M
Oct 22, 2021 - 11:00 AM EDT / 2021.10.22 1500 UTC
Wind: from the SSE (150 degrees) at 10 MPH (9 KT):0
Visibility: greater than 7 mile(s):0
Sky conditions: mostly clear
Temperature: 80 F (27 C)
Dew Point: 71 F (22 C)
Relative Humidity: 74%
Pressure (altimeter): 29.91 in. Hg (1013 hPa)
ob: HKMO 221500Z 15009KT 9999 FEW023 27/22 Q1013 NOSIG
cycle: 15

Station Type Date Time Source
HKMO TAF 2021/10/22 18:27 UTC NOAA

TAF TAF HKMO 221700Z 2218/2324 16005KT 9999 FEW022
TEMPO 2302/2305 22005KT -SHRA SCT019 BKN080
BECMG 2309/2312 16010KT FEW026
BECMG 2321/2324 16005KT FEW022

Example: see airport list